createdAt,value
2022-09-14T00:00:42.127Z,23.59
2022-09-14T00:01:46.368Z,23.58
2022-09-14T00:02:51.166Z,23.61
2022-09-14T00:03:56.788Z,23.59
2022-09-14T00:05:00.980Z,23.59
2022-09-14T00:06:05.180Z,23.63
2022-09-14T00:07:09.369Z,23.62
2022-09-14T00:08:13.551Z,23.62
2022-09-14T00:09:17.784Z,23.61
2022-09-14T00:10:21.983Z,23.63
2022-09-14T00:11:26.137Z,23.64
2022-09-14T00:12:30.562Z,23.63
2022-09-14T00:13:34.762Z,23.63
2022-09-14T00:14:38.959Z,23.63
2022-09-14T00:15:43.161Z,23.62
2022-09-14T00:16:47.577Z,23.62
2022-09-14T00:17:52.096Z,23.63
2022-09-14T00:18:56.290Z,23.61
2022-09-14T00:20:00.504Z,23.6
2022-09-14T00:21:04.734Z,23.61
2022-09-14T00:22:08.906Z,23.63
2022-09-14T00:23:13.117Z,23.6
2022-09-14T00:24:17.376Z,23.59
2022-09-14T00:25:21.535Z,23.59
2022-09-14T00:26:25.757Z,23.6
2022-09-14T00:27:30.038Z,23.61
2022-09-14T00:28:34.236Z,23.59
2022-09-14T00:29:38.410Z,23.59
2022-09-14T00:30:42.653Z,23.59
2022-09-14T00:31:47.046Z,23.58
2022-09-14T00:32:51.583Z,23.59
2022-09-14T00:33:55.780Z,23.58
2022-09-14T00:34:59.963Z,23.59
2022-09-14T00:36:04.159Z,23.59
2022-09-14T00:37:08.399Z,23.59
2022-09-14T00:38:12.552Z,23.58
2022-09-14T00:39:16.743Z,23.58
2022-09-14T00:40:21.024Z,23.58
2022-09-14T00:41:25.414Z,23.6
2022-09-14T00:42:29.620Z,23.61
2022-09-14T00:43:33.809Z,23.61
2022-09-14T00:44:37.994Z,23.6
2022-09-14T00:45:42.243Z,23.59
2022-09-14T00:46:46.631Z,23.62
2022-09-14T00:47:51.018Z,23.6
2022-09-14T00:48:55.260Z,23.58
2022-09-14T00:49:59.453Z,23.59
2022-09-14T00:51:03.712Z,23.59
2022-09-14T00:52:07.917Z,23.62
2022-09-14T00:53:12.259Z,23.63
2022-09-14T00:54:16.457Z,23.6
2022-09-14T00:55:20.611Z,23.59
2022-09-14T00:56:24.880Z,23.59
2022-09-14T00:57:29.091Z,23.57
2022-09-14T00:58:33.325Z,23.57
2022-09-14T00:59:37.551Z,23.57
2022-09-14T01:00:41.821Z,23.56
2022-09-14T01:01:46.281Z,23.57
2022-09-14T01:02:50.709Z,23.58
2022-09-14T01:03:54.907Z,23.62
2022-09-14T01:04:59.074Z,23.67
2022-09-14T01:06:03.271Z,23.69
2022-09-14T01:07:07.492Z,23.71
2022-09-14T01:08:11.894Z,23.7
2022-09-14T01:09:16.081Z,23.68
2022-09-14T01:10:20.290Z,23.65
2022-09-14T01:11:24.474Z,23.65
2022-09-14T01:12:28.719Z,23.64
2022-09-14T01:13:32.980Z,23.62
2022-09-14T01:14:37.199Z,23.64
2022-09-14T01:15:41.419Z,23.65
2022-09-14T01:16:45.696Z,23.65
2022-09-14T01:17:50.236Z,23.64
2022-09-14T01:18:54.425Z,23.62
2022-09-14T01:19:58.625Z,23.58
2022-09-14T01:21:02.928Z,23.59
2022-09-14T01:22:07.149Z,23.56
2022-09-14T01:23:11.555Z,23.58
2022-09-14T01:24:15.757Z,23.57
2022-09-14T01:25:19.937Z,23.58
2022-09-14T01:26:24.181Z,23.63
2022-09-14T01:27:28.384Z,23.66
2022-09-14T01:28:32.583Z,23.64
2022-09-14T01:29:36.869Z,23.66
2022-09-14T01:30:41.042Z,23.67
2022-09-14T01:31:45.292Z,23.68
2022-09-14T01:32:49.724Z,23.68
2022-09-14T01:33:53.933Z,23.64
2022-09-14T01:34:58.124Z,23.61
2022-09-14T01:36:02.332Z,23.59
2022-09-14T01:37:06.532Z,23.58
2022-09-14T01:38:10.746Z,23.6
2022-09-14T01:39:14.943Z,23.61
2022-09-14T01:40:19.196Z,23.64
2022-09-14T01:41:23.661Z,23.65
2022-09-14T01:42:27.826Z,23.63
2022-09-14T01:43:34.134Z,23.63
2022-09-14T01:44:40.476Z,23.6
2022-09-14T01:45:44.695Z,23.62
2022-09-14T01:46:49.176Z,23.63
2022-09-14T01:47:53.386Z,23.62
2022-09-14T01:48:57.607Z,23.6
2022-09-14T01:50:01.876Z,23.6
2022-09-14T01:51:06.108Z,23.62
2022-09-14T01:52:10.317Z,23.64
2022-09-14T01:53:14.521Z,23.63
2022-09-14T01:54:18.724Z,23.63
2022-09-14T01:55:22.926Z,23.6
2022-09-14T01:56:27.113Z,23.6
2022-09-14T01:57:31.349Z,23.59
2022-09-14T01:58:35.562Z,23.59
2022-09-14T01:59:39.748Z,23.59
2022-09-14T02:00:43.992Z,23.57
2022-09-14T02:01:50.432Z,23.58
2022-09-14T02:02:56.493Z,23.55
2022-09-14T02:04:01.112Z,23.57
2022-09-14T02:05:05.580Z,23.55
2022-09-14T02:06:09.807Z,23.55
2022-09-14T02:07:14.020Z,23.54
2022-09-14T02:08:18.244Z,23.53
2022-09-14T02:09:22.447Z,23.54
2022-09-14T02:10:26.633Z,23.54
2022-09-14T02:11:31.016Z,23.52
2022-09-14T02:12:35.194Z,23.51
2022-09-14T02:13:39.488Z,23.51
2022-09-14T02:14:43.708Z,23.53
2022-09-14T02:15:47.941Z,23.53
2022-09-14T02:16:52.287Z,23.52
2022-09-14T02:17:56.515Z,23.52
2022-09-14T02:19:00.724Z,23.51
2022-09-14T02:20:05.036Z,23.52
2022-09-14T02:21:09.248Z,23.53
2022-09-14T02:22:13.427Z,23.52
2022-09-14T02:23:17.716Z,23.49
2022-09-14T02:24:21.914Z,23.5
2022-09-14T02:25:26.142Z,23.5
2022-09-14T02:26:30.325Z,23.51
2022-09-14T02:27:34.530Z,23.51
2022-09-14T02:28:38.758Z,23.5
2022-09-14T02:29:43.131Z,23.5
2022-09-14T02:30:47.342Z,23.49
2022-09-14T02:31:51.605Z,23.48
2022-09-14T02:32:56.090Z,23.49
2022-09-14T02:34:00.289Z,23.48
2022-09-14T02:35:04.503Z,23.49
2022-09-14T02:36:08.714Z,23.5
2022-09-14T02:37:12.899Z,23.5
2022-09-14T02:38:17.144Z,23.49
2022-09-14T02:39:21.329Z,23.48
2022-09-14T02:40:25.580Z,23.5
2022-09-14T02:41:30.012Z,23.49
2022-09-14T02:42:34.208Z,23.49
2022-09-14T02:43:38.449Z,23.5
2022-09-14T02:44:42.735Z,23.49
2022-09-14T02:45:46.914Z,23.49
2022-09-14T02:46:51.151Z,23.49
2022-09-14T02:47:55.575Z,23.51
2022-09-14T02:48:59.844Z,23.51
2022-09-14T02:50:04.042Z,23.5
2022-09-14T02:51:08.221Z,23.51
2022-09-14T02:52:12.395Z,23.51
2022-09-14T02:53:16.583Z,23.51
2022-09-14T02:54:20.810Z,23.5
2022-09-14T02:55:25.012Z,23.49
2022-09-14T02:56:29.199Z,23.49
2022-09-14T02:57:33.401Z,23.5
2022-09-14T02:58:37.585Z,23.5
2022-09-14T02:59:41.936Z,23.51
2022-09-14T03:00:46.217Z,23.51
2022-09-14T03:01:50.665Z,23.5
2022-09-14T03:02:55.053Z,23.5
2022-09-14T03:03:59.275Z,23.49
2022-09-14T03:05:03.490Z,23.49
2022-09-14T03:06:07.703Z,23.49
2022-09-14T03:07:11.941Z,23.5
2022-09-14T03:08:16.117Z,23.5
2022-09-14T03:09:20.366Z,23.5
2022-09-14T03:10:24.622Z,23.51
2022-09-14T03:11:28.836Z,23.49
2022-09-14T03:12:33.031Z,23.48
2022-09-14T03:13:37.222Z,23.48
2022-09-14T03:14:41.448Z,23.48
2022-09-14T03:15:45.708Z,23.47
2022-09-14T03:16:50.133Z,23.47
2022-09-14T03:17:54.330Z,23.47
2022-09-14T03:18:58.535Z,23.46
2022-09-14T03:20:02.776Z,23.47
2022-09-14T03:21:06.976Z,23.47
2022-09-14T03:22:11.180Z,23.47
2022-09-14T03:23:15.380Z,23.47
2022-09-14T03:24:19.583Z,23.46
2022-09-14T03:25:23.841Z,23.46
2022-09-14T03:26:28.032Z,23.46
2022-09-14T03:27:32.378Z,23.45
2022-09-14T03:28:36.562Z,23.45
2022-09-14T03:29:40.742Z,23.46
2022-09-14T03:30:44.955Z,23.46
2022-09-14T03:31:49.268Z,23.46
2022-09-14T03:32:53.754Z,23.46
2022-09-14T03:33:57.953Z,23.47
2022-09-14T03:35:02.282Z,23.48
2022-09-14T03:36:06.478Z,23.49
2022-09-14T03:37:10.703Z,23.49
2022-09-14T03:38:14.898Z,23.5
2022-09-14T03:39:19.109Z,23.51
2022-09-14T03:40:23.344Z,23.51
2022-09-14T03:41:27.910Z,23.51
2022-09-14T03:42:32.131Z,23.51
2022-09-14T03:43:36.370Z,23.52
2022-09-14T03:44:40.582Z,23.53
2022-09-14T03:45:44.771Z,23.53
2022-09-14T03:46:49.026Z,23.53
2022-09-14T03:47:53.461Z,23.53
2022-09-14T03:48:57.696Z,23.53
2022-09-14T03:50:01.892Z,23.54
2022-09-14T03:51:06.119Z,23.54
2022-09-14T03:52:10.430Z,23.55
2022-09-14T03:53:14.629Z,23.57
2022-09-14T03:54:18.832Z,23.57
2022-09-14T03:55:23.047Z,23.56
2022-09-14T03:56:27.245Z,23.55
2022-09-14T03:57:31.472Z,23.53
2022-09-14T03:58:35.658Z,23.53
2022-09-14T03:59:43.538Z,23.54
2022-09-14T04:00:47.965Z,23.53
2022-09-14T04:01:52.208Z,23.55
2022-09-14T04:02:56.625Z,23.57
2022-09-14T04:04:01.085Z,23.62
2022-09-14T04:05:05.288Z,23.65
2022-09-14T04:06:09.525Z,23.63
2022-09-14T04:07:13.720Z,23.61
2022-09-14T04:08:18.027Z,23.59
2022-09-14T04:09:22.252Z,23.56
2022-09-14T04:10:26.458Z,23.53
2022-09-14T04:11:30.633Z,23.5
2022-09-14T04:12:34.851Z,23.47
2022-09-14T04:13:39.040Z,23.48
2022-09-14T04:14:43.223Z,23.47
2022-09-14T04:15:47.441Z,23.48
2022-09-14T04:16:51.819Z,23.47
2022-09-14T04:17:56.009Z,23.45
2022-09-14T04:19:01.277Z,23.46
2022-09-14T04:20:05.791Z,23.46
2022-09-14T04:21:10.018Z,23.45
2022-09-14T04:22:14.225Z,23.46
2022-09-14T04:23:18.411Z,23.44
2022-09-14T04:24:29.388Z,23.43
2022-09-14T04:25:34.729Z,23.41
2022-09-14T04:26:38.936Z,23.42
2022-09-14T04:27:44.395Z,23.4
2022-09-14T04:29:22.869Z,23.4
2022-09-14T04:30:27.087Z,23.39
2022-09-14T04:31:31.335Z,23.39
2022-09-14T04:32:35.809Z,23.38
2022-09-14T04:33:40.173Z,23.4
2022-09-14T04:34:44.403Z,23.38
2022-09-14T04:35:48.609Z,23.38
2022-09-14T04:36:52.823Z,23.39
2022-09-14T04:37:57.020Z,23.39
2022-09-14T04:39:01.274Z,23.36
2022-09-14T04:40:05.616Z,23.36
2022-09-14T04:41:10.045Z,23.36
2022-09-14T04:42:14.260Z,23.38
2022-09-14T04:43:18.447Z,23.38
2022-09-14T04:44:22.678Z,23.36
2022-09-14T04:45:26.870Z,23.33
2022-09-14T04:46:31.206Z,23.35
2022-09-14T04:47:35.674Z,23.33
2022-09-14T04:48:39.861Z,23.34
2022-09-14T04:49:44.128Z,23.35
2022-09-14T04:50:49.360Z,23.35
2022-09-14T04:51:53.549Z,23.35
2022-09-14T04:52:57.757Z,23.33
2022-09-14T04:54:01.966Z,23.35
2022-09-14T04:55:06.137Z,23.34
2022-09-14T04:56:10.333Z,23.31
2022-09-14T04:57:14.510Z,23.34
2022-09-14T04:58:18.712Z,23.34
2022-09-14T04:59:23.041Z,23.35
2022-09-14T05:00:27.281Z,23.33
2022-09-14T05:01:31.567Z,23.32
2022-09-14T05:02:36.128Z,23.32
2022-09-14T05:03:40.647Z,23.31
2022-09-14T05:04:45.016Z,23.31
2022-09-14T05:05:49.220Z,23.31
2022-09-14T05:06:53.459Z,23.31
2022-09-14T05:07:57.666Z,23.28
2022-09-14T05:09:01.856Z,23.29
2022-09-14T05:10:06.055Z,23.28
2022-09-14T05:11:10.244Z,23.31
2022-09-14T05:12:14.453Z,23.3
2022-09-14T05:13:18.670Z,23.28
2022-09-14T05:14:22.906Z,23.29
2022-09-14T05:15:27.116Z,23.28
2022-09-14T05:16:31.328Z,23.27
2022-09-14T05:17:35.530Z,23.28
2022-09-14T05:18:39.734Z,23.28
2022-09-14T05:19:44.057Z,23.27
2022-09-14T05:20:48.305Z,23.25
2022-09-14T05:21:52.495Z,23.26
2022-09-14T05:22:56.712Z,23.26
2022-09-14T05:24:00.936Z,23.24
2022-09-14T05:25:05.140Z,23.25
2022-09-14T05:26:09.321Z,23.26
2022-09-14T05:27:13.535Z,23.25
2022-09-14T05:28:17.773Z,23.24
2022-09-14T05:29:22.107Z,23.24
2022-09-14T05:30:26.358Z,23.26
2022-09-14T05:31:30.630Z,23.24
2022-09-14T05:32:34.988Z,23.28
2022-09-14T05:33:39.216Z,23.25
2022-09-14T05:34:43.720Z,23.25
2022-09-14T05:35:47.953Z,23.23
2022-09-14T05:36:52.141Z,23.22
2022-09-14T05:37:56.352Z,23.2
2022-09-14T05:39:00.551Z,23.21
2022-09-14T05:40:04.799Z,23.25
2022-09-14T05:41:09.232Z,23.28
2022-09-14T05:42:13.456Z,23.27
2022-09-14T05:43:17.659Z,23.25
2022-09-14T05:44:21.870Z,23.28
2022-09-14T05:45:26.079Z,23.26
2022-09-14T05:46:30.330Z,23.26
2022-09-14T05:47:38.450Z,23.25
2022-09-14T05:48:43.234Z,23.3
2022-09-14T05:49:47.702Z,23.32
2022-09-14T05:50:51.890Z,23.32
2022-09-14T05:51:56.116Z,23.32
2022-09-14T05:53:00.347Z,23.3
2022-09-14T05:54:04.542Z,23.32
2022-09-14T05:55:08.733Z,23.33
2022-09-14T05:56:12.920Z,23.36
2022-09-14T05:57:17.151Z,23.36
2022-09-14T05:58:21.373Z,23.36
2022-09-14T05:59:25.589Z,23.37
2022-09-14T06:00:29.802Z,23.35
2022-09-14T06:01:34.072Z,23.37
2022-09-14T06:02:38.467Z,23.36
2022-09-14T06:03:42.672Z,23.34
2022-09-14T06:04:47.181Z,23.35
2022-09-14T06:05:51.477Z,23.38
2022-09-14T06:07:14.773Z,23.37
2022-09-14T06:08:22.375Z,23.37
2022-09-14T06:09:30.002Z,23.34
2022-09-14T06:10:37.114Z,23.34
2022-09-14T06:11:41.302Z,23.33
2022-09-14T06:12:45.503Z,23.34
2022-09-14T06:13:49.739Z,23.34
2022-09-14T06:14:54.337Z,23.33
2022-09-14T06:15:58.530Z,23.32
2022-09-14T06:17:02.758Z,23.36
2022-09-14T06:18:06.965Z,23.37
2022-09-14T06:19:11.183Z,23.35
2022-09-14T06:20:15.558Z,23.35
2022-09-14T06:21:19.760Z,23.37
2022-09-14T06:22:23.970Z,23.35
2022-09-14T06:23:28.170Z,23.36
2022-09-14T06:24:32.384Z,23.35
2022-09-14T06:25:36.603Z,23.38
2022-09-14T06:26:40.785Z,23.39
2022-09-14T06:27:44.977Z,23.41
2022-09-14T06:28:49.193Z,23.41
2022-09-14T06:29:53.514Z,23.42
2022-09-14T06:30:57.825Z,23.41
2022-09-14T06:32:02.077Z,23.38
2022-09-14T06:33:06.277Z,23.4
2022-09-14T06:34:10.488Z,23.38
2022-09-14T06:35:14.669Z,23.39
2022-09-14T06:36:18.897Z,23.4
2022-09-14T06:37:23.140Z,23.39
2022-09-14T06:38:27.348Z,23.38
2022-09-14T06:39:31.557Z,23.37
2022-09-14T06:40:35.758Z,23.37
2022-09-14T06:41:39.953Z,23.35
2022-09-14T06:42:44.201Z,23.39
2022-09-14T06:43:48.403Z,23.39
2022-09-14T06:44:52.658Z,23.37
2022-09-14T06:45:56.881Z,23.39
2022-09-14T06:47:01.103Z,23.38
2022-09-14T06:48:05.314Z,23.38
2022-09-14T06:49:09.504Z,23.39
2022-09-14T06:50:13.682Z,23.41
2022-09-14T06:51:17.887Z,23.41
2022-09-14T06:52:22.110Z,23.39
2022-09-14T06:53:26.311Z,23.38
2022-09-14T06:54:30.511Z,23.41
2022-09-14T06:55:34.722Z,23.4
2022-09-14T06:56:38.941Z,23.37
2022-09-14T06:57:43.292Z,23.39
2022-09-14T06:58:47.506Z,23.39
2022-09-14T06:59:51.784Z,23.4
2022-09-14T07:00:56.012Z,23.39
2022-09-14T07:02:00.254Z,23.38
2022-09-14T07:03:04.514Z,23.41
2022-09-14T07:04:08.955Z,23.42
2022-09-14T07:05:15.405Z,23.4
2022-09-14T07:06:19.619Z,23.42
2022-09-14T07:07:23.834Z,23.38
2022-09-14T07:08:28.063Z,23.4
2022-09-14T07:09:32.303Z,23.39
2022-09-14T07:10:36.472Z,23.41
2022-09-14T07:11:40.718Z,23.39
2022-09-14T07:12:44.938Z,23.41
2022-09-14T07:13:49.151Z,23.42
2022-09-14T07:14:53.357Z,23.4
2022-09-14T07:15:57.563Z,23.39
2022-09-14T07:17:01.735Z,23.39
2022-09-14T07:18:06.013Z,23.38
2022-09-14T07:19:10.265Z,23.39
2022-09-14T07:20:14.457Z,23.38
2022-09-14T07:21:18.681Z,23.39
2022-09-14T07:22:22.873Z,23.39
2022-09-14T07:23:27.067Z,23.4
2022-09-14T07:24:33.543Z,23.38
2022-09-14T07:25:37.740Z,23.37
2022-09-14T07:26:41.966Z,23.36
2022-09-14T07:27:46.132Z,23.38
2022-09-14T07:28:50.319Z,23.36
2022-09-14T07:29:54.553Z,23.37
2022-09-14T07:30:59.131Z,23.39
2022-09-14T07:32:03.581Z,23.38
2022-09-14T07:33:07.819Z,23.37
2022-09-14T07:34:12.016Z,23.36
2022-09-14T07:35:16.193Z,23.38
2022-09-14T07:36:20.401Z,23.38
2022-09-14T07:37:24.693Z,23.39
2022-09-14T07:38:48.437Z,23.4
2022-09-14T07:39:56.747Z,23.39
2022-09-14T07:41:01.149Z,23.39
2022-09-14T07:42:05.362Z,23.4
2022-09-14T07:43:09.579Z,23.41
2022-09-14T07:44:13.781Z,23.42
2022-09-14T07:45:18.043Z,23.42
2022-09-14T07:46:22.301Z,23.4
2022-09-14T07:47:26.896Z,23.42
2022-09-14T07:48:31.115Z,23.41
2022-09-14T07:49:35.320Z,23.41
2022-09-14T07:50:39.601Z,23.41
2022-09-14T07:51:43.800Z,23.41
2022-09-14T07:52:48.045Z,23.41
2022-09-14T07:53:52.218Z,23.41
2022-09-14T07:54:56.433Z,23.43
2022-09-14T07:56:00.686Z,23.42
2022-09-14T07:57:04.931Z,23.41
2022-09-14T07:58:09.115Z,23.41
2022-09-14T08:00:47.506Z,23.41
2022-09-14T08:01:51.901Z,23.41
2022-09-14T08:02:56.593Z,23.42
2022-09-14T08:04:04.755Z,23.42
2022-09-14T08:05:12.007Z,23.4
2022-09-14T08:06:18.547Z,23.39
2022-09-14T08:07:22.783Z,23.43
2022-09-14T08:08:26.977Z,23.42
2022-09-14T08:09:31.187Z,23.4
2022-09-14T08:10:35.686Z,23.41
2022-09-14T08:11:39.869Z,23.41
2022-09-14T08:12:44.099Z,23.4
2022-09-14T08:13:48.304Z,23.4
2022-09-14T08:14:52.513Z,23.41
2022-09-14T08:15:56.709Z,23.41
2022-09-14T08:17:01.020Z,23.42
2022-09-14T08:18:05.474Z,23.42
2022-09-14T08:19:09.702Z,23.41
2022-09-14T08:20:13.908Z,23.39
2022-09-14T08:21:18.117Z,23.41
2022-09-14T08:22:25.347Z,23.41
2022-09-14T08:23:29.562Z,23.41
2022-09-14T08:24:33.742Z,23.42
2022-09-14T08:25:38.161Z,23.42
2022-09-14T08:26:42.378Z,23.42
2022-09-14T08:27:46.610Z,23.42
2022-09-14T08:28:50.842Z,23.41
2022-09-14T08:29:55.056Z,23.41
2022-09-14T08:30:59.269Z,23.42
2022-09-14T08:32:03.500Z,23.41
2022-09-14T08:33:07.958Z,23.41
2022-09-14T08:34:12.166Z,23.43
2022-09-14T08:35:16.605Z,23.43
2022-09-14T08:36:37.696Z,23.41
2022-09-14T08:37:41.966Z,23.39
2022-09-14T08:38:46.150Z,23.38
2022-09-14T08:39:51.720Z,23.4
2022-09-14T08:40:56.152Z,23.42
2022-09-14T08:42:00.383Z,23.43
2022-09-14T08:43:05.599Z,23.44
2022-09-14T08:44:09.790Z,23.45
2022-09-14T08:45:13.985Z,23.47
2022-09-14T08:46:18.190Z,23.44
2022-09-14T08:47:22.396Z,23.41
2022-09-14T08:48:26.676Z,23.44
2022-09-14T08:49:30.901Z,23.43
2022-09-14T08:50:38.723Z,23.41
2022-09-14T08:51:43.071Z,23.38
2022-09-14T08:52:47.257Z,23.37
2022-09-14T08:53:51.467Z,23.4
2022-09-14T08:54:55.718Z,23.4
2022-09-14T08:55:59.939Z,23.42
2022-09-14T08:57:04.135Z,23.44
2022-09-14T08:58:08.348Z,23.43
2022-09-14T08:59:13.576Z,23.43
2022-09-14T09:00:17.928Z,23.43
2022-09-14T09:01:22.267Z,23.44
2022-09-14T09:02:26.800Z,23.44
2022-09-14T09:03:31.109Z,23.44
2022-09-14T09:04:35.514Z,23.44
2022-09-14T09:05:39.725Z,23.44
2022-09-14T09:06:43.942Z,23.45
2022-09-14T09:07:48.254Z,23.41
2022-09-14T09:08:52.518Z,23.42
2022-09-14T09:09:56.758Z,23.44
2022-09-14T09:11:00.959Z,23.45
2022-09-14T09:12:05.158Z,23.45
2022-09-14T09:13:09.367Z,23.48
2022-09-14T09:14:17.674Z,23.5
2022-09-14T09:15:22.453Z,23.5
2022-09-14T09:16:26.690Z,23.49
2022-09-14T09:17:31.143Z,23.49
2022-09-14T09:18:35.626Z,23.49
2022-09-14T09:19:39.818Z,23.49
2022-09-14T09:20:44.037Z,23.48
2022-09-14T09:21:48.319Z,23.49
2022-09-14T09:22:52.545Z,23.48
2022-09-14T09:23:56.762Z,23.5
2022-09-14T09:25:00.953Z,23.5
2022-09-14T09:26:05.166Z,23.5
2022-09-14T09:27:09.352Z,23.5
2022-09-14T09:28:13.575Z,23.5
2022-09-14T09:29:17.811Z,23.49
2022-09-14T09:30:22.062Z,23.49
2022-09-14T09:31:26.294Z,23.49
2022-09-14T09:32:31.598Z,23.48
2022-09-14T09:33:35.798Z,23.47
2022-09-14T09:34:40.032Z,23.48
2022-09-14T09:35:44.231Z,23.5
2022-09-14T09:36:48.450Z,23.49
2022-09-14T09:37:52.707Z,23.49
2022-09-14T09:39:02.929Z,23.48
2022-09-14T09:40:09.007Z,23.49
2022-09-14T09:41:13.375Z,23.49
2022-09-14T09:42:17.597Z,23.5
2022-09-14T09:43:38.851Z,23.5
2022-09-14T09:44:53.103Z,23.49
2022-09-14T09:46:04.842Z,23.5
2022-09-14T09:47:09.324Z,23.49
2022-09-14T09:48:13.546Z,23.48
2022-09-14T09:49:17.757Z,23.5
2022-09-14T09:50:21.933Z,23.49
2022-09-14T09:51:26.117Z,23.5
2022-09-14T09:52:30.320Z,23.5
2022-09-14T09:53:36.391Z,23.51
2022-09-14T09:54:40.606Z,23.52
2022-09-14T09:55:45.839Z,23.51
2022-09-14T09:56:50.063Z,23.51
2022-09-14T09:57:54.247Z,23.52
2022-09-14T09:58:58.513Z,23.52
2022-09-14T10:00:02.691Z,23.53
2022-09-14T10:01:11.577Z,23.53
2022-09-14T10:02:16.609Z,23.51
2022-09-14T10:03:21.004Z,23.51
2022-09-14T10:04:25.268Z,23.52
2022-09-14T10:05:29.440Z,23.51
2022-09-14T10:06:33.622Z,23.52
2022-09-14T10:07:38.083Z,23.52
2022-09-14T10:08:42.301Z,23.53
2022-09-14T10:09:46.545Z,23.54
2022-09-14T10:10:50.748Z,23.53
2022-09-14T10:11:54.993Z,23.56
2022-09-14T10:12:59.192Z,23.55
2022-09-14T10:14:03.364Z,23.56
2022-09-14T10:15:07.571Z,23.56
2022-09-14T10:16:11.858Z,23.56
2022-09-14T10:17:16.427Z,23.55
2022-09-14T10:18:20.672Z,23.56
2022-09-14T10:19:24.871Z,23.56
2022-09-14T10:20:29.363Z,23.55
2022-09-14T10:21:33.676Z,23.56
2022-09-14T10:22:37.904Z,23.55
2022-09-14T10:23:42.148Z,23.56
2022-09-14T10:24:46.445Z,23.55
2022-09-14T10:25:50.686Z,23.54
2022-09-14T10:26:54.918Z,23.53
2022-09-14T10:27:59.149Z,23.54
2022-09-14T10:29:03.337Z,23.55
2022-09-14T10:30:07.524Z,23.54
2022-09-14T10:31:11.736Z,23.54
2022-09-14T10:32:16.172Z,23.49
2022-09-14T10:33:20.405Z,23.47
2022-09-14T10:34:24.599Z,23.48
2022-09-14T10:35:28.844Z,23.5
2022-09-14T10:36:33.096Z,23.51
2022-09-14T10:37:37.317Z,23.53
2022-09-14T10:38:41.588Z,23.54
2022-09-14T10:39:45.983Z,23.56
2022-09-14T10:40:50.409Z,23.55
2022-09-14T10:41:54.730Z,23.53
2022-09-14T10:42:58.979Z,23.51
2022-09-14T10:44:03.298Z,23.52
2022-09-14T10:45:07.494Z,23.55
2022-09-14T10:46:11.728Z,23.54
2022-09-14T10:47:16.211Z,23.52
2022-09-14T10:48:20.392Z,23.51
2022-09-14T10:49:24.924Z,23.52
2022-09-14T10:50:29.185Z,23.51
2022-09-14T10:51:33.395Z,23.52
2022-09-14T10:52:37.623Z,23.53
2022-09-14T10:53:41.894Z,23.52
2022-09-14T10:54:46.062Z,23.53
2022-09-14T10:55:50.456Z,23.53
2022-09-14T10:56:54.677Z,23.52
2022-09-14T10:57:58.876Z,23.51
2022-09-14T10:59:03.197Z,23.51
2022-09-14T11:00:07.471Z,23.52
2022-09-14T11:01:11.759Z,23.51
2022-09-14T11:02:16.254Z,23.51
2022-09-14T11:03:20.954Z,23.53
2022-09-14T11:04:25.171Z,23.52
2022-09-14T11:05:29.425Z,23.53
2022-09-14T11:06:33.637Z,23.55
2022-09-14T11:07:37.835Z,23.53
2022-09-14T11:08:42.025Z,23.53
2022-09-14T11:09:46.237Z,23.52
2022-09-14T11:10:50.424Z,23.53
2022-09-14T11:11:54.615Z,23.51
2022-09-14T11:12:58.839Z,23.51
2022-09-14T11:14:03.054Z,23.52
2022-09-14T11:15:07.323Z,23.53
2022-09-14T11:16:11.616Z,23.53
2022-09-14T11:17:16.113Z,23.54
2022-09-14T11:18:20.347Z,23.54
2022-09-14T11:19:24.535Z,23.53
2022-09-14T11:20:28.744Z,23.53
2022-09-14T11:21:32.914Z,23.51
2022-09-14T11:22:37.152Z,23.52
2022-09-14T11:23:41.398Z,23.53
2022-09-14T11:24:45.599Z,23.53
2022-09-14T11:25:49.796Z,23.54
2022-09-14T11:26:54.031Z,23.53
2022-09-14T11:27:58.229Z,23.54
2022-09-14T11:29:02.435Z,23.55
2022-09-14T11:30:06.644Z,23.54
2022-09-14T11:31:10.894Z,23.56
2022-09-14T11:32:21.248Z,23.55
2022-09-14T11:33:30.466Z,23.54
2022-09-14T11:34:35.289Z,23.54
2022-09-14T11:35:39.462Z,23.53
2022-09-14T11:36:43.654Z,23.54
2022-09-14T11:37:47.866Z,23.54
2022-09-14T11:38:52.052Z,23.53
2022-09-14T11:39:56.309Z,23.53
2022-09-14T11:41:00.718Z,23.54
2022-09-14T11:42:04.927Z,23.54
2022-09-14T11:43:09.115Z,23.52
2022-09-14T11:44:13.397Z,23.54
2022-09-14T11:45:17.601Z,23.54
2022-09-14T11:46:21.851Z,23.54
2022-09-14T11:47:26.212Z,23.53
2022-09-14T11:48:45.903Z,23.55
2022-09-14T11:49:50.124Z,23.53
2022-09-14T11:50:54.319Z,23.51
2022-09-14T11:51:58.591Z,23.52
2022-09-14T11:53:02.777Z,23.52
2022-09-14T11:54:06.949Z,23.52
2022-09-14T11:55:11.183Z,23.52
2022-09-14T11:56:15.426Z,23.51
2022-09-14T11:57:19.663Z,23.53
2022-09-14T11:58:23.880Z,23.53
2022-09-14T11:59:28.138Z,23.53
2022-09-14T12:00:32.351Z,23.53
2022-09-14T12:01:36.575Z,23.53
2022-09-14T12:02:40.838Z,23.52
2022-09-14T12:03:48.539Z,23.53
2022-09-14T12:04:56.199Z,23.54
2022-09-14T12:06:00.391Z,23.49
2022-09-14T12:07:04.589Z,23.5
2022-09-14T12:08:08.874Z,23.53
2022-09-14T12:09:13.142Z,23.53
2022-09-14T12:10:17.377Z,23.53
2022-09-14T12:11:21.601Z,23.53
2022-09-14T12:12:25.802Z,23.53
2022-09-14T12:13:29.995Z,23.51
2022-09-14T12:14:34.196Z,23.52
2022-09-14T12:15:38.459Z,23.52
2022-09-14T12:16:42.824Z,23.53
2022-09-14T12:17:47.043Z,23.51
2022-09-14T12:18:51.254Z,23.53
2022-09-14T12:19:55.510Z,23.51
2022-09-14T12:20:59.725Z,23.51
2022-09-14T12:22:03.919Z,23.51
2022-09-14T12:23:08.151Z,23.53
2022-09-14T12:24:12.339Z,23.52
2022-09-14T12:25:16.539Z,23.51
2022-09-14T12:26:20.765Z,23.54
2022-09-14T12:27:24.952Z,23.53
2022-09-14T12:28:29.251Z,23.53
2022-09-14T12:29:35.800Z,23.53
2022-09-14T12:30:41.018Z,23.53
2022-09-14T12:31:45.661Z,23.54
2022-09-14T12:32:49.887Z,23.52
2022-09-14T12:33:54.123Z,23.51
2022-09-14T12:34:58.325Z,23.53
2022-09-14T12:36:02.566Z,23.52
2022-09-14T12:37:11.404Z,23.52
2022-09-14T12:38:16.206Z,23.53
2022-09-14T12:39:20.403Z,23.54
2022-09-14T12:40:24.667Z,23.52
2022-09-14T12:41:29.060Z,23.53
2022-09-14T12:42:33.250Z,23.51
2022-09-14T12:43:37.467Z,23.52
2022-09-14T12:44:41.692Z,23.52
2022-09-14T12:45:45.952Z,23.52
2022-09-14T12:46:50.331Z,23.51
2022-09-14T12:47:54.501Z,23.51
2022-09-14T12:48:58.710Z,23.51
2022-09-14T12:50:02.899Z,23.51
2022-09-14T12:51:07.100Z,23.53
2022-09-14T12:52:11.294Z,23.51
2022-09-14T12:53:15.486Z,23.53
2022-09-14T12:54:19.788Z,23.54
2022-09-14T12:55:23.977Z,23.53
2022-09-14T12:56:28.166Z,23.52
2022-09-14T12:57:32.364Z,23.53
2022-09-14T12:58:36.562Z,23.53
2022-09-14T12:59:40.781Z,23.51
2022-09-14T13:00:44.960Z,23.53
2022-09-14T13:01:49.407Z,23.53
2022-09-14T13:02:54.164Z,23.53
2022-09-14T13:03:58.672Z,23.51
2022-09-14T13:05:02.881Z,23.52
2022-09-14T13:06:07.105Z,23.51
2022-09-14T13:07:11.299Z,23.54
2022-09-14T13:08:15.529Z,23.52
2022-09-14T13:09:19.704Z,23.53
2022-09-14T13:10:23.894Z,23.52
2022-09-14T13:11:28.123Z,23.53
2022-09-14T13:12:32.345Z,23.53
2022-09-14T13:13:36.656Z,23.53
2022-09-14T13:14:40.894Z,23.53
2022-09-14T13:15:45.145Z,23.53
2022-09-14T13:16:49.535Z,23.51
2022-09-14T13:17:53.796Z,23.52
2022-09-14T13:18:57.987Z,23.5
2022-09-14T13:20:02.200Z,23.53
2022-09-14T13:21:06.510Z,23.53
2022-09-14T13:22:10.722Z,23.54
2022-09-14T13:23:14.937Z,23.53
2022-09-14T13:24:19.187Z,23.53
2022-09-14T13:25:23.491Z,23.54
2022-09-14T13:26:27.797Z,23.51
2022-09-14T13:27:31.995Z,23.53
2022-09-14T13:28:36.217Z,23.49
2022-09-14T13:29:40.426Z,23.51
2022-09-14T13:30:44.697Z,23.51
2022-09-14T13:31:49.052Z,23.52
2022-09-14T13:32:53.299Z,23.51
2022-09-14T13:33:57.539Z,23.51
2022-09-14T13:35:01.783Z,23.51
2022-09-14T13:36:06.021Z,23.5
2022-09-14T13:37:10.283Z,23.48
2022-09-14T13:38:14.509Z,23.48
2022-09-14T13:39:18.965Z,23.49
2022-09-14T13:40:23.248Z,23.49
2022-09-14T13:41:27.742Z,23.49
2022-09-14T13:42:31.937Z,23.48
2022-09-14T13:43:36.321Z,23.49
2022-09-14T13:44:40.526Z,23.5
2022-09-14T13:45:44.787Z,23.47
2022-09-14T13:46:49.176Z,23.47
2022-09-14T13:47:53.378Z,23.46
2022-09-14T13:48:57.627Z,23.48
2022-09-14T13:50:01.894Z,23.49
2022-09-14T13:51:06.187Z,23.48
2022-09-14T13:52:10.364Z,23.49
2022-09-14T13:53:14.616Z,23.49
2022-09-14T13:54:18.881Z,23.48
2022-09-14T13:55:23.092Z,23.47
2022-09-14T13:56:27.336Z,23.47